Alys Beach, Florida
Current Conditions -  °F | °C
As of 6:53 AM on Sunday 23 Nov 2014 (Local Time) from KECP Reporting Station
Overcast Overcast  
Wind Chill: 22°   Ceiling: 800
Heat Index: 22°   Visibility: 7mi
Dew Point: 21°   Wind: 12mph
Humidity: 91%   Direction: 120°ESE
Pressure: 29.87"   Gusts: 22mph
Location:  30.2534°N, 85.9486°W
Report Text: KECP 231253Z 12010G19KT 7SM OVC008 22/21 A2987 RMK AO2 SLP125 T02220206 $
Loading
Personal Weather Stations






























Interactive Weather Map New forecast layout! Learn more

10-Day Weather Forecast

Advertisements
Track Severe Weather on mobile